Time;durP1;ratioP1;P1;durP2;ratioP2;P2;SDS_P1;SDS_P2;PMS_P1;PMS_P2;Temp;Humidity;BMP_temperature;BMP_pressure;BME280_temperature;BME280_humidity;BME280_pressure;Samples;Min_cycle;Max_cycle;Signal;HPM_P1;HPM_P2
2023/04/13 00:01:25;;;;;;;3.30;2.03;;;6.80;99.90;;;;;;4855925;29;20322;-67
2023/04/13 00:03:53;;;;;;;8.37;2.37;;;6.80;99.90;;;;;;4853096;29;20215;-67
2023/04/13 00:06:23;;;;;;;12.73;2.20;;;6.80;99.90;;;;;;4850574;29;20219;-67
2023/04/13 00:08:54;;;;;;;5.77;2.63;;;6.80;99.90;;;;;;4850475;29;20228;-67
2023/04/13 00:11:22;;;;;;;8.47;2.40;;;6.80;99.90;;;;;;4853362;29;20326;-67
2023/04/13 00:13:52;;;;;;;9.23;2.80;;;6.80;99.90;;;;;;4854554;29;20724;-67
2023/04/13 00:16:21;;;;;;;10.13;2.70;;;6.80;99.90;;;;;;4857184;29;20223;-67
2023/04/13 00:18:51;;;;;;;8.20;2.77;;;6.90;99.90;;;;;;4850283;29;20220;-68
2023/04/13 00:21:19;;;;;;;7.37;2.70;;;6.90;99.90;;;;;;4852744;29;20227;-67
2023/04/13 00:23:48;;;;;;;11.17;2.80;;;6.90;99.90;;;;;;4841578;29;20277;-67
2023/04/13 00:26:19;;;;;;;7.30;2.70;;;6.90;99.90;;;;;;4854441;29;20768;-67
2023/04/13 00:28:47;;;;;;;13.70;3.13;;;6.90;99.90;;;;;;4855172;29;20813;-67
2023/04/13 00:31:15;;;;;;;8.60;3.00;;;7.00;99.90;;;;;;4855145;29;20241;-67
2023/04/13 00:33:44;;;;;;;15.60;3.30;;;7.00;99.90;;;;;;4856357;29;20305;-67
2023/04/13 00:36:12;;;;;;;17.03;3.33;;;7.00;99.90;;;;;;4856760;29;20231;-67
2023/04/13 00:38:43;;;;;;;28.17;3.70;;;7.00;99.90;;;;;;4853805;29;20579;-67
2023/04/13 00:41:13;;;;;;;21.60;4.10;;;7.10;99.90;;;;;;4853497;29;20227;-67
2023/04/13 00:43:43;;;;;;;17.90;3.37;;;7.10;99.90;;;;;;4857364;29;20211;-67
2023/04/13 00:46:11;;;;;;;21.90;3.90;;;7.20;99.90;;;;;;4852356;29;20226;-67
2023/04/13 00:48:40;;;;;;;16.33;4.20;;;7.20;99.90;;;;;;4851180;29;20234;-68
2023/04/13 00:51:08;;;;;;;22.17;4.27;;;7.30;99.90;;;;;;4851485;29;20266;-67
2023/04/13 00:53:36;;;;;;;17.50;4.07;;;7.30;99.90;;;;;;4850974;29;20260;-68
2023/04/13 00:56:05;;;;;;;15.33;3.90;;;7.30;99.90;;;;;;4854069;29;20239;-67
2023/04/13 00:58:35;;;;;;;17.03;4.00;;;7.30;99.90;;;;;;4854453;29;20686;-66
2023/04/13 01:01:04;;;;;;;24.90;4.10;;;7.30;99.90;;;;;;4853873;29;20594;-67
2023/04/13 01:03:32;;;;;;;29.03;4.53;;;7.30;99.90;;;;;;4848689;29;20583;-67
2023/04/13 01:06:13;;;;;;;23.03;5.17;;;7.30;99.90;;;;;;4846107;29;20220;-67
2023/04/13 01:08:47;;;;;;;18.20;4.40;;;7.30;99.90;;;;;;4851086;29;20226;-67
2023/04/13 01:11:23;;;;;;;27.10;5.27;;;7.20;99.90;;;;;;4848444;29;20257;-65
2023/04/13 01:14:00;;;;;;;25.53;4.50;;;7.30;99.90;;;;;;4838323;29;20203;-65
2023/04/13 01:16:35;;;;;;;13.93;3.37;;;7.30;99.90;;;;;;4851867;29;20235;-65
2023/04/13 01:19:06;;;;;;;10.60;2.40;;;7.20;99.90;;;;;;4853131;29;20227;-67
2023/04/13 01:21:35;;;;;;;10.10;2.17;;;7.00;99.90;;;;;;4847009;29;20227;-67
2023/04/13 01:24:16;;;;;;;9.23;2.23;;;6.80;99.90;;;;;;4848776;29;20227;-67
2023/04/13 01:26:56;;;;;;;8.00;2.30;;;6.70;99.90;;;;;;4853668;29;20782;-67
2023/04/13 01:29:27;;;;;;;2.97;1.77;;;6.60;99.90;;;;;;4846454;29;20315;-67
2023/04/13 01:31:56;;;;;;;6.00;1.73;;;6.60;99.90;;;;;;4849050;29;20276;-66
2023/04/13 01:34:25;;;;;;;5.30;1.93;;;6.60;99.90;;;;;;4854740;29;20212;-66
2023/04/13 01:36:54;;;;;;;5.13;1.47;;;6.60;99.90;;;;;;4848358;29;20299;-66
2023/04/13 01:39:24;;;;;;;5.43;1.80;;;6.50;99.90;;;;;;4851450;29;20268;-66
2023/04/13 01:41:52;;;;;;;4.03;2.00;;;6.40;99.90;;;;;;4853670;29;20580;-66
2023/04/13 01:44:21;;;;;;;4.20;1.50;;;6.40;99.90;;;;;;4853907;29;20307;-67
2023/04/13 01:46:56;;;;;;;11.37;1.77;;;6.40;99.90;;;;;;4850581;29;20195;-66
2023/04/13 01:49:25;;;;;;;3.93;1.67;;;6.40;99.90;;;;;;4853659;29;20201;-67
2023/04/13 01:51:57;;;;;;;3.17;1.50;;;6.40;99.90;;;;;;4848743;29;20227;-67
2023/04/13 01:54:27;;;;;;;1.47;1.37;;;6.40;99.90;;;;;;4852899;29;20227;-67
2023/04/13 01:56:58;;;;;;;2.33;1.40;;;6.40;99.90;;;;;;4856416;29;20263;-67
2023/04/13 01:59:27;;;;;;;2.40;1.40;;;6.40;99.90;;;;;;4856061;29;20228;-67
2023/04/13 02:01:58;;;;;;;1.63;1.50;;;6.40;99.90;;;;;;4854131;29;20234;-66
2023/04/13 02:04:27;;;;;;;4.60;1.60;;;6.40;99.90;;;;;;4857614;29;20193;-67
2023/04/13 02:06:55;;;;;;;4.77;1.60;;;6.30;99.90;;;;;;4857663;29;20223;-66
2023/04/13 02:09:23;;;;;;;2.73;1.50;;;6.40;99.90;;;;;;4847876;29;20277;-67
2023/04/13 02:11:52;;;;;;;1.60;1.50;;;6.30;99.90;;;;;;4850471;29;20236;-67
2023/04/13 02:14:21;;;;;;;3.20;1.73;;;6.30;99.90;;;;;;4853550;29;20251;-67
2023/04/13 02:16:49;;;;;;;2.40;1.70;;;6.30;99.90;;;;;;4852310;29;20216;-66
2023/04/13 02:19:20;;;;;;;3.10;1.60;;;6.20;99.90;;;;;;4856591;29;20231;-67
2023/04/13 02:21:48;;;;;;;1.53;1.47;;;6.20;99.90;;;;;;4858350;29;20318;-67
2023/04/13 02:24:16;;;;;;;4.57;1.60;;;6.20;99.90;;;;;;4858980;29;20246;-67
2023/04/13 02:26:45;;;;;;;6.93;1.67;;;6.10;99.90;;;;;;4856422;29;20247;-67
2023/04/13 02:29:13;;;;;;;4.00;1.57;;;6.10;99.90;;;;;;4856024;29;20235;-67
2023/04/13 02:31:42;;;;;;;1.73;1.60;;;6.20;99.90;;;;;;4839341;29;20207;-66
2023/04/13 02:34:11;;;;;;;5.13;1.90;;;6.20;99.90;;;;;;4857837;29;20196;-67
2023/04/13 02:36:40;;;;;;;2.03;1.70;;;6.10;99.90;;;;;;4855220;29;20232;-67
2023/04/13 02:39:09;;;;;;;4.87;1.77;;;6.10;99.90;;;;;;4855282;29;20227;-67
2023/04/13 02:41:37;;;;;;;3.73;1.70;;;6.10;99.90;;;;;;4858623;29;20227;-67
2023/04/13 02:44:07;;;;;;;4.10;1.90;;;6.10;99.90;;;;;;4857501;29;20223;-66
2023/04/13 02:46:35;;;;;;;6.07;1.93;;;6.10;99.90;;;;;;4856457;29;20302;-67
2023/04/13 02:49:03;;;;;;;3.73;1.80;;;6.10;99.90;;;;;;4851280;29;20743;-67
2023/04/13 02:51:32;;;;;;;5.00;1.80;;;6.10;99.90;;;;;;4849459;29;20223;-66
2023/04/13 02:54:02;;;;;;;4.03;1.67;;;6.10;99.90;;;;;;4850148;29;20227;-67
2023/04/13 02:56:31;;;;;;;5.83;2.20;;;6.10;99.90;;;;;;4855917;29;20288;-67
2023/04/13 02:58:59;;;;;;;2.27;1.70;;;6.00;99.90;;;;;;4846168;29;20705;-67
2023/04/13 03:01:28;;;;;;;4.93;1.90;;;6.00;99.90;;;;;;4851968;29;20231;-67
2023/04/13 03:03:56;;;;;;;2.73;1.83;;;6.00;99.90;;;;;;4855289;29;20220;-67
2023/04/13 03:06:25;;;;;;;2.53;1.87;;;5.90;99.90;;;;;;4857996;29;20310;-67
2023/04/13 03:08:53;;;;;;;8.27;2.13;;;6.00;99.90;;;;;;4857097;29;20250;-67
2023/04/13 03:11:24;;;;;;;3.80;1.87;;;6.00;99.90;;;;;;4853490;29;20238;-67
2023/04/13 03:13:53;;;;;;;8.57;2.13;;;5.90;99.90;;;;;;4853561;29;20599;-67
2023/04/13 03:16:21;;;;;;;4.63;1.90;;;5.90;99.90;;;;;;4850698;29;20239;-67
2023/04/13 03:18:51;;;;;;;2.53;1.90;;;5.90;99.90;;;;;;4851824;29;20228;-67
2023/04/13 03:21:19;;;;;;;3.83;1.90;;;5.80;99.90;;;;;;4858227;29;20231;-67
2023/04/13 03:23:47;;;;;;;7.27;2.07;;;5.90;99.90;;;;;;4853904;29;20220;-67
2023/04/13 03:26:15;;;;;;;6.13;1.73;;;5.90;99.90;;;;;;4852418;29;20244;-67
2023/04/13 03:28:46;;;;;;;5.87;2.93;;;5.90;99.90;;;;;;4856460;29;20235;-66
2023/04/13 03:31:14;;;;;;;4.73;2.23;;;5.90;99.90;;;;;;4853860;29;20212;-67
2023/04/13 03:33:42;;;;;;;7.83;2.07;;;5.90;99.90;;;;;;4855221;29;20220;-67
2023/04/13 03:36:11;;;;;;;8.87;2.53;;;5.80;99.90;;;;;;4853802;29;20231;-67
2023/04/13 03:38:39;;;;;;;11.07;3.27;;;5.80;99.90;;;;;;4856228;29;20223;-67
2023/04/13 03:41:08;;;;;;;5.90;2.53;;;5.80;99.90;;;;;;4856441;29;20231;-67
2023/04/13 03:43:36;;;;;;;5.30;2.03;;;5.80;99.90;;;;;;4855751;29;20283;-67
2023/04/13 03:46:06;;;;;;;3.37;1.97;;;5.70;99.90;;;;;;4855956;29;20233;-67
2023/04/13 03:48:35;;;;;;;5.90;2.20;;;5.70;99.90;;;;;;4857413;29;20227;-67
2023/04/13 03:51:03;;;;;;;6.77;2.27;;;5.70;99.90;;;;;;4858137;29;20255;-67
2023/04/13 03:53:31;;;;;;;5.90;2.50;;;5.70;99.90;;;;;;4855892;29;20244;-67
2023/04/13 03:56:00;;;;;;;5.07;2.30;;;5.70;99.90;;;;;;4852355;29;20227;-68
2023/04/13 03:58:28;;;;;;;8.43;2.40;;;5.60;99.90;;;;;;4855375;29;20284;-67
2023/04/13 04:00:58;;;;;;;15.97;2.83;;;5.70;99.90;;;;;;4854659;29;20227;-67
2023/04/13 04:03:27;;;;;;;8.00;2.77;;;5.70;99.90;;;;;;4849446;29;20634;-67
2023/04/13 04:05:56;;;;;;;11.93;3.10;;;5.70;99.90;;;;;;4850634;29;20219;-67
2023/04/13 04:08:24;;;;;;;8.43;2.70;;;5.70;99.90;;;;;;4854992;29;20702;-67
2023/04/13 04:10:53;;;;;;;5.70;2.73;;;5.80;99.90;;;;;;4853092;29;20214;-67
2023/04/13 04:13:22;;;;;;;13.27;3.00;;;5.80;99.90;;;;;;4854613;29;20674;-68
2023/04/13 04:15:50;;;;;;;10.43;2.37;;;6.00;99.90;;;;;;4851311;29;20239;-67
2023/04/13 04:18:18;;;;;;;8.53;2.80;;;6.00;99.90;;;;;;4846422;29;20227;-68
2023/04/13 04:20:48;;;;;;;4.13;2.40;;;6.10;99.90;;;;;;4854455;29;20227;-68
2023/04/13 04:23:16;;;;;;;6.23;2.40;;;6.20;99.90;;;;;;4851403;29;20255;-68
2023/04/13 04:25:47;;;;;;;5.23;3.00;;;6.20;99.90;;;;;;4853818;29;20255;-68
2023/04/13 04:28:16;;;;;;;7.87;2.53;;;6.20;99.90;;;;;;4852491;29;20265;-68
2023/04/13 04:30:52;;;;;;;13.20;2.80;;;6.30;99.90;;;;;;4852198;29;20631;-68
2023/04/13 04:33:22;;;;;;;5.20;2.47;;;6.20;99.90;;;;;;4852562;29;20227;-66
2023/04/13 04:35:53;;;;;;;5.83;2.37;;;6.20;99.90;;;;;;4850062;29;20286;-68
2023/04/13 04:38:22;;;;;;;7.17;2.50;;;6.20;99.90;;;;;;4850395;29;20257;-68
2023/04/13 04:40:56;;;;;;;10.03;2.50;;;6.20;99.90;;;;;;4853164;29;20238;-68
2023/04/13 04:43:26;;;;;;;12.97;2.50;;;6.20;99.90;;;;;;4849110;29;20203;-68
2023/04/13 04:45:56;;;;;;;9.10;2.93;;;6.20;99.90;;;;;;4838022;29;20233;-68
2023/04/13 04:48:25;;;;;;;9.27;2.57;;;6.10;99.90;;;;;;4852771;29;20258;-68
2023/04/13 04:50:56;;;;;;;9.90;3.07;;;6.10;99.90;;;;;;4856191;29;20230;-68
2023/04/13 04:53:25;;;;;;;8.40;2.73;;;6.20;99.90;;;;;;4853405;29;20235;-68
2023/04/13 04:55:53;;;;;;;9.77;3.00;;;6.10;99.90;;;;;;4848989;29;20191;-68
2023/04/13 04:58:21;;;;;;;12.93;2.60;;;6.10;99.90;;;;;;4850488;29;20211;-68
2023/04/13 05:00:51;;;;;;;5.13;2.53;;;6.10;99.90;;;;;;4855162;29;20308;-68
2023/04/13 05:03:19;;;;;;;12.33;2.90;;;6.10;99.90;;;;;;4837109;29;20262;-68
2023/04/13 05:05:48;;;;;;;9.87;4.03;;;6.10;99.90;;;;;;4849110;29;20329;-68
2023/04/13 05:08:17;;;;;;;12.10;3.00;;;6.10;99.90;;;;;;4851123;29;20227;-68
2023/04/13 05:10:46;;;;;;;13.33;3.50;;;6.20;99.90;;;;;;4847699;29;20204;-68
2023/04/13 05:13:15;;;;;;;9.83;3.43;;;6.20;99.90;;;;;;4847108;29;20200;-68
2023/04/13 05:15:43;;;;;;;13.97;3.27;;;6.30;99.90;;;;;;4851414;29;20227;-68
2023/04/13 05:18:11;;;;;;;10.13;2.90;;;6.40;99.90;;;;;;4852581;29;20227;-68
2023/04/13 05:20:40;;;;;;;16.13;3.47;;;6.40;99.90;;;;;;4855296;29;20231;-68
2023/04/13 05:23:08;;;;;;;17.47;2.97;;;6.40;99.90;;;;;;4855254;29;20279;-68
2023/04/13 05:25:38;;;;;;;7.83;2.60;;;6.40;99.90;;;;;;4853989;29;20230;-68
2023/04/13 05:28:07;;;;;;;14.60;3.03;;;6.40;99.90;;;;;;4850676;29;20674;-68
2023/04/13 05:30:36;;;;;;;14.73;3.67;;;6.40;99.90;;;;;;4838400;29;20236;-66
2023/04/13 05:33:06;;;;;;;12.63;3.57;;;6.40;99.90;;;;;;4858242;29;20235;-68
2023/04/13 05:35:36;;;;;;;13.13;3.10;;;6.50;99.90;;;;;;4858469;29;20298;-68
2023/04/13 05:38:04;;;;;;;15.80;3.40;;;6.50;99.90;;;;;;4853812;29;20227;-68
2023/04/13 05:40:33;;;;;;;15.77;3.30;;;6.50;99.90;;;;;;4853976;29;20247;-68
2023/04/13 05:43:03;;;;;;;18.57;3.47;;;6.60;99.90;;;;;;4856293;29;20246;-68
2023/04/13 05:45:31;;;;;;;12.90;3.33;;;6.70;99.90;;;;;;4854840;29;20223;-68
2023/04/13 05:48:00;;;;;;;6.53;2.77;;;6.80;99.90;;;;;;4856709;29;20219;-68
2023/04/13 05:50:28;;;;;;;17.53;3.17;;;6.80;99.90;;;;;;4855995;29;20219;-67
2023/04/13 05:52:57;;;;;;;11.67;3.20;;;6.80;99.90;;;;;;4859034;29;20199;-66
2023/04/13 05:55:26;;;;;;;13.43;3.43;;;6.90;99.90;;;;;;4852235;29;20196;-66
2023/04/13 05:57:54;;;;;;;16.37;3.30;;;7.00;99.90;;;;;;4840351;29;20236;-66
2023/04/13 06:00:24;;;;;;;13.73;3.20;;;7.00;99.90;;;;;;4854801;29;20311;-66
2023/04/13 06:02:53;;;;;;;18.77;3.73;;;7.00;99.90;;;;;;4854214;29;20722;-67
2023/04/13 06:05:23;;;;;;;18.17;3.37;;;7.10;99.90;;;;;;4851746;29;20236;-66
2023/04/13 06:07:52;;;;;;;27.47;4.33;;;7.20;99.90;;;;;;4859489;29;20219;-66
2023/04/13 06:10:21;;;;;;;9.93;2.83;;;7.30;99.90;;;;;;4854502;29;20212;-67
2023/04/13 06:12:51;;;;;;;15.70;3.57;;;7.50;99.90;;;;;;4855272;29;20215;-67
2023/04/13 06:15:20;;;;;;;19.17;3.60;;;7.60;99.90;;;;;;4851907;29;20592;-67
2023/04/13 06:17:52;;;;;;;15.57;3.30;;;7.80;99.90;;;;;;4857918;29;20223;-67
2023/04/13 06:20:21;;;;;;;15.57;3.07;;;7.90;99.90;;;;;;4849441;29;20275;-67
2023/04/13 06:22:49;;;;;;;13.37;2.87;;;8.00;99.90;;;;;;4855495;29;20207;-66
2023/04/13 06:25:18;;;;;;;10.80;2.80;;;8.10;99.90;;;;;;4858354;29;20251;-67
2023/04/13 06:27:48;;;;;;;9.00;2.83;;;8.30;99.90;;;;;;4854848;29;20211;-67
2023/04/13 06:30:17;;;;;;;16.63;3.70;;;8.40;99.90;;;;;;4858038;29;20600;-67
2023/04/13 06:32:46;;;;;;;16.63;3.70;;;8.60;99.90;;;;;;4857903;29;20235;-67
2023/04/13 06:35:16;;;;;;;16.70;3.30;;;8.80;99.90;;;;;;4856156;29;20231;-67
2023/04/13 06:37:45;;;;;;;8.43;2.57;;;9.10;99.90;;;;;;4839208;29;20728;-67
2023/04/13 06:40:14;;;;;;;13.60;2.93;;;9.30;99.90;;;;;;4851391;29;20219;-67
2023/04/13 06:42:43;;;;;;;16.40;3.23;;;9.40;99.90;;;;;;4852698;29;20219;-66
2023/04/13 06:45:12;;;;;;;10.50;3.10;;;9.30;99.90;;;;;;4851171;29;20254;-67
2023/04/13 06:47:40;;;;;;;16.13;3.67;;;9.40;99.90;;;;;;4852537;29;20730;-67
2023/04/13 06:50:12;;;;;;;11.60;2.77;;;9.70;99.90;;;;;;4853304;29;20227;-66
2023/04/13 06:52:44;;;;;;;13.80;3.20;;;10.10;99.90;;;;;;4844136;29;20192;-66
2023/04/13 06:55:12;;;;;;;15.00;3.23;;;10.30;99.90;;;;;;4856787;29;20254;-67
2023/04/13 06:57:41;;;;;;;16.33;3.00;;;10.50;99.90;;;;;;4851084;29;20766;-67
2023/04/13 07:00:13;;;;;;;19.17;3.30;;;10.60;99.90;;;;;;4854505;29;20275;-67
2023/04/13 07:02:57;;;;;;;12.60;3.30;;;10.60;99.90;;;;;;4851118;29;20233;-67
2023/04/13 07:05:26;;;;;;;12.07;2.87;;;10.50;99.90;;;;;;4854336;29;20219;-67
2023/04/13 07:07:57;;;;;;;12.07;2.97;;;10.40;99.90;;;;;;4856283;29;20219;-66
2023/04/13 07:10:26;;;;;;;7.50;2.67;;;10.30;99.90;;;;;;4857640;29;20211;-67
2023/04/13 07:12:55;;;;;;;14.17;3.17;;;10.20;99.90;;;;;;4854843;29;20265;-67
2023/04/13 07:15:23;;;;;;;13.67;2.90;;;10.20;99.90;;;;;;4852583;29;20287;-67
2023/04/13 07:17:51;;;;;;;7.23;2.90;;;10.20;99.90;;;;;;4852901;29;20235;-67
2023/04/13 07:20:20;;;;;;;8.57;2.67;;;10.40;99.90;;;;;;4854673;29;20267;-67
2023/04/13 07:22:48;;;;;;;12.30;2.93;;;10.40;99.90;;;;;;4856034;29;20199;-66
2023/04/13 07:25:20;;;;;;;7.63;2.53;;;10.40;99.90;;;;;;4859181;29;20241;-67
2023/04/13 07:27:49;;;;;;;12.37;2.90;;;10.60;99.90;;;;;;4859126;29;20227;-67
2023/04/13 07:30:17;;;;;;;12.73;2.70;;;11.00;99.90;;;;;;4858914;29;20227;-67
2023/04/13 07:32:45;;;;;;;9.83;2.93;;;11.30;99.90;;;;;;4841685;29;20365;-67
2023/04/13 07:35:14;;;;;;;9.43;3.03;;;11.40;99.90;;;;;;4836349;29;20227;-67
2023/04/13 07:37:43;;;;;;;10.63;2.60;;;11.30;99.90;;;;;;4850344;29;20215;-65
2023/04/13 07:40:12;;;;;;;14.43;2.93;;;11.70;99.90;;;;;;4838429;29;20226;-67
2023/04/13 07:42:41;;;;;;;9.13;2.77;;;11.80;99.90;;;;;;4856537;29;20228;-67
2023/04/13 07:45:10;;;;;;;14.13;3.10;;;11.80;99.90;;;;;;4853226;29;20251;-67
2023/04/13 07:47:38;;;;;;;9.73;2.80;;;12.00;99.90;;;;;;4854506;29;20237;-67
2023/04/13 07:50:08;;;;;;;15.03;3.10;;;12.10;99.90;;;;;;4856585;29;20359;-67
2023/04/13 07:52:37;;;;;;;9.20;2.73;;;12.20;99.90;;;;;;4849725;29;20209;-67
2023/04/13 07:55:07;;;;;;;11.57;2.70;;;12.70;99.90;;;;;;4852095;29;20219;-67
2023/04/13 07:57:35;;;;;;;8.33;2.80;;;13.10;99.90;;;;;;4855718;29;20268;-67
2023/04/13 08:00:06;;;;;;;13.50;3.27;;;13.30;99.90;;;;;;4854158;29;20263;-67
2023/04/13 08:02:35;;;;;;;10.83;3.07;;;13.30;99.90;;;;;;4854750;29;20215;-67
2023/04/13 08:05:05;;;;;;;8.07;2.70;;;13.50;99.90;;;;;;4839812;29;20233;-67
2023/04/13 08:07:35;;;;;;;10.90;3.07;;;13.50;99.90;;;;;;4852661;29;20238;-67
2023/04/13 08:10:03;;;;;;;9.77;2.57;;;13.50;99.90;;;;;;4840315;29;20219;-67
2023/04/13 08:12:31;;;;;;;13.40;2.97;;;13.00;99.90;;;;;;4841262;29;20224;-67
2023/04/13 08:15:00;;;;;;;10.67;2.63;;;12.70;99.90;;;;;;4848119;29;20231;-69
2023/04/13 08:17:30;;;;;;;15.13;2.90;;;13.00;99.90;;;;;;4852410;29;20224;-67
2023/04/13 08:19:58;;;;;;;18.10;2.97;;;13.20;99.90;;;;;;4852491;29;20750;-67
2023/04/13 08:22:27;;;;;;;8.40;2.80;;;13.60;99.90;;;;;;4854529;29;20252;-67
2023/04/13 08:24:55;;;;;;;14.27;2.97;;;13.60;99.90;;;;;;4859067;29;20224;-67
2023/04/13 08:27:24;;;;;;;13.10;2.80;;;13.70;99.90;;;;;;4854667;29;20697;-67
2023/04/13 08:29:55;;;;;;;9.17;3.07;;;13.20;99.90;;;;;;4851177;29;20280;-67
2023/04/13 08:32:24;;;;;;;10.57;2.87;;;12.90;99.90;;;;;;4850666;29;20235;-67
2023/04/13 08:34:54;;;;;;;8.20;2.50;;;12.80;99.90;;;;;;4855226;29;20202;-66
2023/04/13 08:37:23;;;;;;;8.67;2.63;;;12.80;99.90;;;;;;4850841;29;20200;-67
2023/04/13 08:39:55;;;;;;;11.20;2.90;;;13.00;99.90;;;;;;4853577;29;20258;-67
2023/04/13 08:42:25;;;;;;;14.10;2.90;;;13.60;99.90;;;;;;4853914;29;20323;-67
2023/04/13 08:44:58;;;;;;;8.90;2.33;;;14.20;99.90;;;;;;4852850;29;20228;-67
2023/04/13 08:47:27;;;;;;;8.33;2.40;;;14.60;99.90;;;;;;4855439;29;20224;-67
2023/04/13 08:49:58;;;;;;;9.30;2.67;;;15.00;99.90;;;;;;4848512;29;20205;-66
2023/04/13 08:52:28;;;;;;;8.80;2.23;;;15.50;99.90;;;;;;4849098;29;20197;-67
2023/04/13 08:54:59;;;;;;;6.93;2.60;;;15.60;99.90;;;;;;4849017;29;20235;-67
2023/04/13 08:57:28;;;;;;;4.60;1.97;;;15.60;99.90;;;;;;4854339;29;20231;-67
2023/04/13 08:59:59;;;;;;;6.20;2.43;;;16.00;99.90;;;;;;4855307;29;20283;-66
2023/04/13 09:02:34;;;;;;;9.30;2.50;;;16.10;99.90;;;;;;4849897;29;20626;-67
2023/04/13 09:05:14;;;;;;;7.27;2.33;;;15.50;99.90;;;;;;4835463;29;20227;-67
2023/04/13 09:07:49;;;;;;;7.87;2.03;;;15.40;99.90;;;;;;4842588;29;20199;-67
2023/04/13 09:10:19;;;;;;;10.07;2.73;;;15.00;99.90;;;;;;4846261;29;20213;-67
2023/04/13 09:12:49;;;;;;;9.20;2.23;;;14.40;99.90;;;;;;4841673;29;20703;-67
2023/04/13 09:15:17;;;;;;;7.20;2.10;;;13.70;99.90;;;;;;4839252;29;20235;-69
2023/04/13 09:17:46;;;;;;;10.80;2.77;;;13.10;99.90;;;;;;4840019;29;20632;-67
2023/04/13 09:20:20;;;;;;;6.83;2.50;;;12.70;99.90;;;;;;4849532;29;20239;-69
2023/04/13 09:22:50;;;;;;;8.00;2.17;;;12.50;99.90;;;;;;4854709;29;20199;-66
2023/04/13 09:25:23;;;;;;;7.70;2.53;;;12.60;99.90;;;;;;4833466;29;20624;-67
2023/04/13 09:27:52;;;;;;;6.37;2.10;;;13.60;99.90;;;;;;4853037;29;20240;-67
2023/04/13 09:30:21;;;;;;;9.23;2.50;;;14.90;99.90;;;;;;4851521;29;20613;-68
2023/04/13 09:33:03;;;;;;;6.90;2.30;;;16.10;99.90;;;;;;4850024;29;20248;-67
2023/04/13 09:35:34;;;;;;;7.60;2.40;;;17.40;99.90;;;;;;4845998;29;20224;-67
2023/04/13 09:38:03;;;;;;;8.23;1.80;;;17.50;99.90;;;;;;4848372;29;20722;-67
2023/04/13 09:40:36;;;;;;;5.97;1.90;;;18.00;99.90;;;;;;4842580;29;20226;-68
2023/04/13 09:43:08;;;;;;;5.77;2.20;;;17.60;99.90;;;;;;4842135;29;20227;-67
2023/04/13 09:45:37;;;;;;;4.17;2.20;;;17.20;99.90;;;;;;4840831;29;20226;-67
2023/04/13 09:48:17;;;;;;;7.97;2.27;;;16.50;99.90;;;;;;4843396;29;20694;-68
2023/04/13 09:50:58;;;;;;;7.40;1.80;;;15.70;99.90;;;;;;4843634;29;20227;-67
2023/04/13 09:53:27;;;;;;;6.73;2.30;;;15.00;99.90;;;;;;4844268;29;20234;-67
2023/04/13 09:55:59;;;;;;;7.60;2.10;;;14.90;99.90;;;;;;4845129;29;20960;-67
2023/04/13 09:58:31;;;;;;;4.40;1.97;;;15.50;99.90;;;;;;4844605;29;21014;-67
2023/04/13 10:01:00;;;;;;;8.43;2.43;;;16.60;99.90;;;;;;4847423;29;20236;-68
2023/04/13 10:03:30;;;;;;;3.33;1.80;;;17.70;99.90;;;;;;4850889;29;20711;-68
2023/04/13 10:06:00;;;;;;;7.37;2.03;;;18.60;99.90;;;;;;4849153;29;20737;-67
2023/04/13 10:08:29;;;;;;;3.87;2.10;;;19.40;99.90;;;;;;4848884;29;20231;-68
2023/04/13 10:11:11;;;;;;;7.50;2.40;;;19.20;99.90;;;;;;4848696;29;20230;-68
2023/04/13 10:13:48;;;;;;;5.50;2.30;;;19.10;99.90;;;;;;4853958;29;20670;-67
2023/04/13 10:16:50;;;;;;;7.47;1.83;;;19.00;99.90;;;;;;4854079;29;20200;-68
2023/04/13 10:19:24;;;;;;;3.00;1.83;;;18.60;99.90;;;;;;4813316;29;20333;-68
2023/04/13 10:21:55;;;;;;;5.90;1.80;;;18.60;99.90;;;;;;4858523;29;20706;-68
2023/04/13 10:24:24;;;;;;;3.77;1.70;;;18.70;99.90;;;;;;4858477;29;20225;-68
2023/04/13 10:26:54;;;;;;;5.73;2.23;;;19.50;99.90;;;;;;4859264;29;20286;-68
2023/04/13 10:29:27;;;;;;;7.43;2.33;;;20.00;99.90;;;;;;4850382;29;20224;-68
2023/04/13 10:32:01;;;;;;;6.13;1.97;;;20.40;99.90;;;;;;4856322;29;20207;-68
2023/04/13 10:34:33;;;;;;;7.93;1.80;;;20.60;99.90;;;;;;4858296;29;20198;-68
2023/04/13 10:37:05;;;;;;;5.87;2.00;;;19.20;99.90;;;;;;4850226;29;20228;-67
2023/04/13 10:39:34;;;;;;;7.60;2.40;;;18.10;99.90;;;;;;4854508;29;20227;-67
2023/04/13 10:42:05;;;;;;;6.73;2.00;;;17.60;99.90;;;;;;4852545;29;20284;-68
2023/04/13 10:44:47;;;;;;;4.30;2.17;;;17.60;99.90;;;;;;4854840;29;20231;-68
2023/04/13 10:47:19;;;;;;;5.93;2.00;;;16.90;99.90;;;;;;4858822;29;20219;-69
2023/04/13 10:49:55;;;;;;;5.07;1.77;;;16.70;99.90;;;;;;4839780;29;20249;-67
2023/04/13 10:52:25;;;;;;;3.73;1.77;;;17.20;99.90;;;;;;4853108;29;20196;-68
2023/04/13 10:54:54;;;;;;;4.90;1.80;;;17.80;99.90;;;;;;4856207;29;20246;-68
2023/04/13 10:57:22;;;;;;;5.30;1.93;;;18.50;99.90;;;;;;4854243;29;20251;-68
2023/04/13 10:59:52;;;;;;;6.93;1.77;;;17.80;99.90;;;;;;4851569;29;20224;-67
2023/04/13 11:02:30;;;;;;;5.27;1.80;;;17.30;99.90;;;;;;4856294;29;20290;-68
2023/04/13 11:05:00;;;;;;;6.77;2.00;;;18.00;99.90;;;;;;4855194;29;20259;-68
2023/04/13 11:07:31;;;;;;;5.13;1.60;;;19.00;99.90;;;;;;4856452;29;20201;-67
2023/04/13 11:10:01;;;;;;;3.87;1.60;;;19.90;99.90;;;;;;4849063;29;20232;-68
2023/04/13 11:12:31;;;;;;;5.20;2.10;;;20.40;99.90;;;;;;4855144;29;20319;-68
2023/04/13 11:14:59;;;;;;;4.83;2.00;;;20.50;99.90;;;;;;4857594;29;20258;-67
2023/04/13 11:17:28;;;;;;;3.93;1.80;;;20.30;99.90;;;;;;4855168;29;20581;-67
2023/04/13 11:19:58;;;;;;;2.17;1.53;;;19.70;99.90;;;;;;4853825;29;20285;-67
2023/04/13 11:22:27;;;;;;;7.00;2.30;;;18.70;99.90;;;;;;4854401;29;20225;-68
2023/04/13 11:25:08;;;;;;;5.43;2.00;;;17.70;99.90;;;;;;4855506;29;20235;-67
2023/04/13 11:27:36;;;;;;;5.63;1.80;;;16.80;99.90;;;;;;4853478;29;20227;-67
2023/04/13 11:30:08;;;;;;;4.37;1.80;;;16.50;99.90;;;;;;4858031;29;20230;-67
2023/04/13 11:32:40;;;;;;;4.87;1.93;;;16.60;99.90;;;;;;4853504;29;20306;-68
2023/04/13 11:35:09;;;;;;;4.00;1.63;;;17.30;99.90;;;;;;4855240;29;20291;-67
2023/04/13 11:37:39;;;;;;;5.83;1.70;;;17.70;99.90;;;;;;4857337;29;20294;-66
2023/04/13 11:40:11;;;;;;;3.17;1.57;;;18.00;99.90;;;;;;4858522;29;20195;-68
2023/04/13 11:42:42;;;;;;;1.97;1.50;;;18.00;99.90;;;;;;4855555;29;20227;-67
2023/04/13 11:45:13;;;;;;;7.03;1.87;;;18.10;99.90;;;;;;4853765;29;20252;-68
2023/04/13 11:47:41;;;;;;;4.10;1.90;;;18.40;99.90;;;;;;4853795;29;20591;-68
2023/04/13 11:50:10;;;;;;;3.03;1.60;;;18.80;99.90;;;;;;4857651;29;20602;-68
2023/04/13 11:52:41;;;;;;;3.40;1.90;;;19.10;99.90;;;;;;4854085;29;20195;-67
2023/04/13 11:55:11;;;;;;;4.50;1.77;;;19.30;99.90;;;;;;4859684;29;20225;-68
2023/04/13 11:57:50;;;;;;;6.40;1.53;;;19.90;99.90;;;;;;4854181;29;20715;-68
2023/04/13 12:00:22;;;;;;;2.80;1.50;;;19.50;99.90;;;;;;4849459;29;20227;-68
2023/04/13 12:02:51;;;;;;;3.10;1.60;;;19.20;99.90;;;;;;4850725;29;20256;-68
2023/04/13 12:05:30;;;;;;;4.47;1.90;;;19.10;99.90;;;;;;4856553;29;20226;-68
2023/04/13 12:08:01;;;;;;;5.20;2.03;;;18.50;99.90;;;;;;4849905;29;20250;-67
2023/04/13 12:10:35;;;;;;;3.17;1.80;;;17.30;99.90;;;;;;4852430;29;20232;-67
2023/04/13 12:13:18;;;;;;;4.23;1.77;;;16.70;99.90;;;;;;4839068;29;20234;-67
2023/04/13 12:16:03;;;;;;;8.37;1.83;;;16.60;99.90;;;;;;4852925;29;20234;-67
2023/04/13 12:18:46;;;;;;;5.03;1.83;;;17.00;99.90;;;;;;4848886;29;20219;-68
2023/04/13 12:21:18;;;;;;;2.57;1.70;;;17.60;99.90;;;;;;4852208;29;20236;-67
2023/04/13 12:23:54;;;;;;;3.20;1.70;;;18.00;99.90;;;;;;4854610;29;20235;-67
2023/04/13 12:26:31;;;;;;;4.73;1.80;;;18.10;99.90;;;;;;4849849;29;20687;-68
2023/04/13 12:29:22;;;;;;;6.83;2.03;;;18.40;99.90;;;;;;4855429;29;20228;-68
2023/04/13 12:31:51;;;;;;;6.07;2.13;;;18.60;99.90;;;;;;4849306;29;20246;-67
2023/04/13 12:34:19;;;;;;;6.83;1.90;;;18.70;99.90;;;;;;4850867;29;20647;-67
2023/04/13 12:36:47;;;;;;;4.17;1.77;;;18.50;99.90;;;;;;4853763;29;20967;-67
2023/04/13 12:39:16;;;;;;;5.27;1.40;;;18.50;99.90;;;;;;4848064;29;20243;-68
2023/04/13 12:41:45;;;;;;;3.50;1.63;;;18.40;99.90;;;;;;4851508;29;20704;-67
2023/04/13 12:44:13;;;;;;;4.10;1.70;;;18.30;99.90;;;;;;4854523;29;20236;-68
2023/04/13 12:46:42;;;;;;;6.73;1.93;;;17.60;99.90;;;;;;4852072;29;20210;-67
2023/04/13 12:49:10;;;;;;;3.80;1.60;;;17.10;99.90;;;;;;4853272;29;20791;-68
2023/04/13 12:51:38;;;;;;;2.97;1.70;;;16.70;99.90;;;;;;4850429;29;20235;-67
2023/04/13 12:54:12;;;;;;;5.83;1.50;;;16.40;99.90;;;;;;4853108;29;20229;-67
2023/04/13 12:56:40;;;;;;;4.43;1.87;;;16.30;99.90;;;;;;4849080;29;20230;-67
2023/04/13 12:59:10;;;;;;;3.60;1.70;;;16.50;99.90;;;;;;4846343;29;20224;-67
2023/04/13 13:01:39;;;;;;;2.83;1.60;;;16.80;99.90;;;;;;4854854;29;20237;-67
2023/04/13 13:04:07;;;;;;;3.83;1.60;;;17.00;99.90;;;;;;4852124;29;20253;-67